WARNING - Change wsUserSettings.php: $SITE["topfolder"] from : weather28m/ to: ./
Welkom op onze website -
Gegevens meteorieten voor 2019 onder zon aarde ruimte


Webcam zuid Meer informatie Webcam zuid


Onweer radar Meer informatie blitzortung!


Regen radar Meer informatie rain snow radar


Bezoek onze andere website:

Template documentation
and downloads

Onze andere website


U vindt ons ook hier:

Het Weer Aktueel

UK Metoffice

European Weather Network

WeatherCloud

Weather Underground

Austria Weather Network

AWEKAS

Citizen Weather Observer Program (CWOP)

HAMweather, WeatherForYou, PWS Weather

Wetterpage 24

Roosendaal op internet

VWKWEB

RadioZuidWestFM



Het weer levert geen direct gevaar op.    Er zijn geen waarschuwingen afgegeven.

METAR rapporten vliegvelden

   
EHWO - Bergen op Zoom
Gewijzigd: 21-02-2019 07:25
Nevel, Bewolking  
Nevel, Bewolking  
   Wind: ZW 7.4 km/h
Wind: ZW 7.4 km/h
Temperatuur: 6°C
Voelt als: 4°C
Dauwpunt: 5°C
Vochtigheid: 93%
Barometer: 1024 hPa
Bewolking: Bewolking
Zicht: 6 km
Bewolking: Bewolking 13000 ft
EHWO 210625Z AUTO 23004KT 6000 BR OVC130 06/05 Q1024 WHT 23004KT 6000 FEW030 BKN130 TEMPO 4000 BR
EHWO - Woensdrecht
Gewijzigd: 21-02-2019 07:25
Nevel, Bewolking  
Nevel, Bewolking  
   Wind: ZW 7.4 km/h
Wind: ZW 7.4 km/h
Temperatuur: 6°C
Voelt als: 4°C
Dauwpunt: 5°C
Vochtigheid: 93%
Barometer: 1024 hPa
Bewolking: Bewolking
Zicht: 6 km
Bewolking: Bewolking 13000 ft
EHWO 210625Z AUTO 23004KT 6000 BR OVC130 06/05 Q1024 WHT 23004KT 6000 FEW030 BKN130 TEMPO 4000 BR
EHWO - Steenbergen
Gewijzigd: 21-02-2019 07:25
Nevel, Bewolking  
Nevel, Bewolking  
   Wind: ZW 7.4 km/h
Wind: ZW 7.4 km/h
Temperatuur: 6°C
Voelt als: 4°C
Dauwpunt: 5°C
Vochtigheid: 93%
Barometer: 1024 hPa
Bewolking: Bewolking
Zicht: 6 km
Bewolking: Bewolking 13000 ft
EHWO 210625Z AUTO 23004KT 6000 BR OVC130 06/05 Q1024 WHT 23004KT 6000 FEW030 BKN130 TEMPO 4000 BR
EHWO - Oud-Gastel
Gewijzigd: 21-02-2019 07:25
Nevel, Bewolking  
Nevel, Bewolking  
   Wind: ZW 7.4 km/h
Wind: ZW 7.4 km/h
Temperatuur: 6°C
Voelt als: 4°C
Dauwpunt: 5°C
Vochtigheid: 93%
Barometer: 1024 hPa
Bewolking: Bewolking
Zicht: 6 km
Bewolking: Bewolking 13000 ft
EHWO 210625Z AUTO 23004KT 6000 BR OVC130 06/05 Q1024 WHT 23004KT 6000 FEW030 BKN130 TEMPO 4000 BR
EHWO - Oudenbosch
Gewijzigd: 21-02-2019 07:25
Nevel, Bewolking  
Nevel, Bewolking  
   Wind: ZW 7.4 km/h
Wind: ZW 7.4 km/h
Temperatuur: 6°C
Voelt als: 4°C
Dauwpunt: 5°C
Vochtigheid: 93%
Barometer: 1024 hPa
Bewolking: Bewolking
Zicht: 6 km
Bewolking: Bewolking 13000 ft
EHWO 210625Z AUTO 23004KT 6000 BR OVC130 06/05 Q1024 WHT 23004KT 6000 FEW030 BKN130 TEMPO 4000 BR
EHWO - Rucphen
Gewijzigd: 21-02-2019 07:25
Nevel, Bewolking  
Nevel, Bewolking  
   Wind: ZW 7.4 km/h
Wind: ZW 7.4 km/h
Temperatuur: 6°C
Voelt als: 4°C
Dauwpunt: 5°C
Vochtigheid: 93%
Barometer: 1024 hPa
Bewolking: Bewolking
Zicht: 6 km
Bewolking: Bewolking 13000 ft
EHWO 210625Z AUTO 23004KT 6000 BR OVC130 06/05 Q1024 WHT 23004KT 6000 FEW030 BKN130 TEMPO 4000 BR
EHWO - Bergen op Zoom
Gewijzigd: 21-02-2019 07:25
Nevel, Bewolking  
Nevel, Bewolking  
   Wind: ZW 7.4 km/h
Wind: ZW 7.4 km/h
Temperatuur: 6°C
Voelt als: 4°C
Dauwpunt: 5°C
Vochtigheid: 93%
Barometer: 1024 hPa
Bewolking: Bewolking
Zicht: 6 km
Bewolking: Bewolking 13000 ft
EHWO 210625Z AUTO 23004KT 6000 BR OVC130 06/05 Q1024 WHT 23004KT 6000 FEW030 BKN130 TEMPO 4000 BR
EHWO - Fijnaart
Gewijzigd: 21-02-2019 07:25
Nevel, Bewolking  
Nevel, Bewolking  
   Wind: ZW 7.4 km/h
Wind: ZW 7.4 km/h
Temperatuur: 6°C
Voelt als: 4°C
Dauwpunt: 5°C
Vochtigheid: 93%
Barometer: 1024 hPa
Bewolking: Bewolking
Zicht: 6 km
Bewolking: Bewolking 13000 ft
EHWO 210625Z AUTO 23004KT 6000 BR OVC130 06/05 Q1024 WHT 23004KT 6000 FEW030 BKN130 TEMPO 4000 BR
EHWO - Ossendrecht
Gewijzigd: 21-02-2019 07:25
Nevel, Bewolking  
Nevel, Bewolking  
   Wind: ZW 7.4 km/h
Wind: ZW 7.4 km/h
Temperatuur: 6°C
Voelt als: 4°C
Dauwpunt: 5°C
Vochtigheid: 93%
Barometer: 1024 hPa
Bewolking: Bewolking
Zicht: 6 km
Bewolking: Bewolking 13000 ft
EHWO 210625Z AUTO 23004KT 6000 BR OVC130 06/05 Q1024 WHT 23004KT 6000 FEW030 BKN130 TEMPO 4000 BR

Script ontwikkeld door  Saratoga-weather.org Aangepast voor de template door  Weerstation Leuven

Apparatuur in gebruik:

Weerstation
Davis VP2

Weerprogramma
Meteobridge

Weercomputer
Shuttle

Webleverancier
WeservIT

Davis VP2

Meteobridge

Shuttle

WeservIT